NJE597N LIBR-LIRP
Flight info
| Callsign | NJE597N |
|---|---|
| Flight time | N/A |
| Altitude | 18000 |
| Route | FASAN P92 BAR/N0455F400 DCT EKMOT DCT ASPIR DCT IPGOR DCT IBRID DCT KUGIX/N0453F390 Y662 AKUTO L12 MAREL |
| Aircraft | CL60/M-SADE3FGHIJ3J4J7P2RWXY/HB1D1 |
Departure
| Time | 2026-04-29 19:23 |
|---|---|
| Airport | Brindisi Airport (LIBR) |
Arrival
| Time | N/A |
|---|---|
| Airport | Pisa International Airport (LIRP) |
| Time | Latitude | Longitude | Altitude | Speed | Heading |
|---|---|---|---|---|---|
| 2026-04-29 19:07 | 40.65906 | 17.94237 | 31 ft | 0 kts | 0° |
| 2026-04-29 19:16 | 40.65907 | 17.94251 | 31 ft | 3 kts | 158° |
| 2026-04-29 19:17 | 40.65875 | 17.94247 | 32 ft | 5 kts | 186° |
| 2026-04-29 19:17 | 40.65863 | 17.94246 | 32 ft | 0 kts | 186° |
| 2026-04-29 19:18 | 40.65843 | 17.94251 | 32 ft | 10 kts | 147° |
| 2026-04-29 19:18 | 40.65803 | 17.94298 | 32 ft | 12 kts | 109° |
| 2026-04-29 19:18 | 40.65884 | 17.94457 | 30 ft | 19 kts | 55° |
| 2026-04-29 19:18 | 40.65976 | 17.94617 | 26 ft | 24 kts | 52° |
| 2026-04-29 19:19 | 40.66060 | 17.94702 | 24 ft | 15 kts | 354° |
| 2026-04-29 19:19 | 40.66149 | 17.94601 | 24 ft | 18 kts | 317° |
| 2026-04-29 19:19 | 40.66253 | 17.94473 | 23 ft | 22 kts | 316° |
| 2026-04-29 19:19 | 40.66376 | 17.94323 | 21 ft | 26 kts | 316° |
| 2026-04-29 19:20 | 40.66515 | 17.94154 | 21 ft | 28 kts | 318° |
| 2026-04-29 19:20 | 40.66663 | 17.93973 | 24 ft | 29 kts | 315° |
| 2026-04-29 19:20 | 40.66821 | 17.93782 | 25 ft | 31 kts | 317° |
| 2026-04-29 19:20 | 40.66983 | 17.93583 | 26 ft | 33 kts | 315° |
| 2026-04-29 19:21 | 40.67159 | 17.93371 | 27 ft | 34 kts | 318° |
| 2026-04-29 19:21 | 40.67317 | 17.93175 | 28 ft | 20 kts | 314° |
| 2026-04-29 19:21 | 40.67330 | 17.93069 | 28 ft | 5 kts | 233° |
| 2026-04-29 19:21 | 40.67296 | 17.93019 | 28 ft | 9 kts | 225° |
| 2026-04-29 19:22 | 40.67234 | 17.92995 | 28 ft | 11 kts | 140° |
| 2026-04-29 19:22 | 40.67133 | 17.93108 | 28 ft | 43 kts | 138° |
| 2026-04-29 19:22 | 40.66665 | 17.93676 | 28 ft | 137 kts | 137° |
| 2026-04-29 19:22 | 40.65816 | 17.94724 | 248 ft | 188 kts | 140° |
| 2026-04-29 19:23 | 40.64862 | 17.95924 | 1163 ft | 197 kts | 139° |
| 2026-04-29 19:23 | 40.63878 | 17.97196 | 2132 ft | 215 kts | 138° |
| 2026-04-29 19:23 | 40.62705 | 17.98673 | 3025 ft | 245 kts | 137° |
| 2026-04-29 19:23 | 40.61429 | 18.00281 | 4071 ft | 263 kts | 137° |
| 2026-04-29 19:24 | 40.60181 | 18.02026 | 5139 ft | 270 kts | 125° |
| 2026-04-29 19:24 | 40.59539 | 18.04390 | 5842 ft | 286 kts | 90° |
| 2026-04-29 19:24 | 40.60157 | 18.06713 | 6939 ft | 276 kts | 45° |
| 2026-04-29 19:24 | 40.61743 | 18.07935 | 8262 ft | 272 kts | 11° |
| 2026-04-29 19:25 | 40.63604 | 18.08004 | 9464 ft | 275 kts | 346° |
| 2026-04-29 19:25 | 40.65347 | 18.06996 | 10600 ft | 280 kts | 324° |
| 2026-04-29 19:25 | 40.66768 | 18.05325 | 11909 ft | 280 kts | 309° |
| 2026-04-29 19:25 | 40.67748 | 18.03178 | 13203 ft | 279 kts | 294° |
| 2026-04-29 19:26 | 40.68471 | 18.00857 | 14465 ft | 277 kts | 292° |
| 2026-04-29 19:26 | 40.69192 | 17.98529 | 15666 ft | 276 kts | 292° |
| 2026-04-29 19:26 | 40.69896 | 17.96250 | 16909 ft | 270 kts | 292° |
| 2026-04-29 19:26 | 40.70593 | 17.94004 | 18025 ft | 268 kts | 292° |
| 2026-04-29 19:27 | 40.71357 | 17.91710 | 18685 ft | 282 kts | 292° |
| 2026-04-29 19:27 | 40.72100 | 17.89294 | 19352 ft | 293 kts | 291° |
| 2026-04-29 19:27 | 40.72878 | 17.86745 | 20033 ft | 304 kts | 291° |
| 2026-04-29 19:27 | 40.73675 | 17.84142 | 20706 ft | 314 kts | 291° |
| 2026-04-29 19:28 | 40.74498 | 17.81455 | 21309 ft | 324 kts | 292° |
| 2026-04-29 19:28 | 40.75366 | 17.78626 | 21617 ft | 343 kts | 291° |
| 2026-04-29 19:28 | 40.76280 | 17.75647 | 21988 ft | 359 kts | 291° |
| 2026-04-29 19:28 | 40.77234 | 17.72536 | 22599 ft | 366 kts | 292° |
| 2026-04-29 19:29 | 40.78188 | 17.69429 | 23328 ft | 370 kts | 291° |
| 2026-04-29 19:29 | 40.79150 | 17.66292 | 24065 ft | 373 kts | 291° |
| 2026-04-29 19:29 | 40.80123 | 17.63114 | 24787 ft | 376 kts | 291° |
| 2026-04-29 19:29 | 40.81106 | 17.59904 | 25462 ft | 379 kts | 291° |
| 2026-04-29 19:30 | 40.82098 | 17.56660 | 26099 ft | 382 kts | 291° |
| 2026-04-29 19:30 | 40.83097 | 17.53394 | 26687 ft | 386 kts | 291° |
| 2026-04-29 19:30 | 40.84091 | 17.50138 | 27282 ft | 388 kts | 291° |
| 2026-04-29 19:30 | 40.85120 | 17.46765 | 27848 ft | 391 kts | 291° |
| 2026-04-29 19:31 | 40.86132 | 17.43455 | 28371 ft | 394 kts | 292° |
| 2026-04-29 19:31 | 40.87389 | 17.40207 | 28910 ft | 396 kts | 299° |
| 2026-04-29 19:31 | 40.88767 | 17.37067 | 29544 ft | 395 kts | 299° |
| 2026-04-29 19:31 | 40.90138 | 17.33924 | 30243 ft | 393 kts | 298° |
| 2026-04-29 19:32 | 40.91483 | 17.30836 | 30940 ft | 389 kts | 298° |
| 2026-04-29 19:32 | 40.92813 | 17.27779 | 31634 ft | 385 kts | 298° |
| 2026-04-29 19:32 | 40.94130 | 17.24746 | 32246 ft | 382 kts | 298° |
| 2026-04-29 19:32 | 40.95446 | 17.21711 | 32815 ft | 380 kts | 298° |
| 2026-04-29 19:33 | 40.96764 | 17.18667 | 33334 ft | 379 kts | 298° |
| 2026-04-29 19:33 | 40.98067 | 17.15654 | 33828 ft | 378 kts | 298° |
| 2026-04-29 19:33 | 40.99367 | 17.12646 | 34309 ft | 377 kts | 298° |
| 2026-04-29 19:33 | 41.00673 | 17.09620 | 34737 ft | 375 kts | 298° |
| 2026-04-29 19:34 | 41.01967 | 17.06619 | 35091 ft | 375 kts | 298° |
| 2026-04-29 19:34 | 41.03248 | 17.03643 | 35431 ft | 375 kts | 298° |
| 2026-04-29 19:34 | 41.04536 | 17.00649 | 35756 ft | 375 kts | 298° |
| 2026-04-29 19:34 | 41.05832 | 16.97631 | 36068 ft | 375 kts | 298° |